Terminal Aerodrome Forecast
Issued by NWS

Home | Current Version | Previous Version | Text Only | Print | Product List | Glossary On
Versions: 1 2 3 4 5 6 7 8 9 10 11 12 13
000
FTUS41 KCLE 241700
TAFFDY
TAF
KFDY 241720Z 2418/2518 19012G16KT P6SM SCT060 BKN150
     FM242000 17010KT P6SM SCT120 BKN250
     FM250400 19012KT P6SM SCT120 BKN250
     FM251400 21018G28KT P6SM SCT045 BKN120=

USA.gov is the U.S. government's official web portal to all federal, state and local government web resources and services.